createdAt,value
2018-11-26T00:00:36.480Z,20.13
2018-11-26T00:05:35.047Z,21.70
2018-11-26T00:10:51.203Z,18.80
2018-11-26T00:15:49.836Z,21.10
2018-11-26T00:20:49.555Z,20.73
2018-11-26T00:25:48.162Z,21.23
2018-11-26T00:30:46.835Z,21.47
2018-11-26T00:35:45.465Z,19.47
2018-11-26T00:40:44.160Z,22.63
2018-11-26T00:45:42.764Z,19.60
2018-11-26T00:50:41.459Z,22.53
2018-11-26T00:55:40.060Z,23.50
2018-11-26T01:00:38.763Z,24.13
2018-11-26T01:05:38.690Z,24.70
2018-11-26T01:10:37.496Z,25.13
2018-11-26T01:15:36.118Z,24.20
2018-11-26T01:20:34.750Z,24.67
2018-11-26T01:25:33.475Z,24.23
2018-11-26T01:30:32.255Z,24.80
2018-11-26T01:35:30.908Z,23.47
2018-11-26T01:40:34.939Z,22.97
2018-11-26T01:45:34.226Z,21.30
2018-11-26T01:50:32.834Z,23.40
2018-11-26T01:55:36.659Z,23.20
2018-11-26T02:00:35.481Z,23.63
2018-11-26T02:05:34.082Z,22.93
2018-11-26T02:10:32.691Z,20.87
2018-11-26T02:15:36.001Z,23.63
2018-11-26T02:20:34.773Z,21.90
2018-11-26T02:25:33.412Z,22.50
2018-11-26T02:30:32.076Z,23.37
2018-11-26T02:35:30.692Z,22.77
2018-11-26T02:40:30.213Z,20.63
2018-11-26T02:45:29.324Z,19.83
2018-11-26T02:50:27.951Z,19.73
2018-11-26T02:55:26.610Z,21.07
2018-11-26T03:00:25.308Z,20.70
2018-11-26T03:05:25.688Z,23.20
2018-11-26T03:10:24.338Z,21.10
2018-11-26T03:15:23.052Z,19.30
2018-11-26T03:20:21.756Z,21.43
2018-11-26T03:25:20.376Z,22.20
2018-11-26T03:30:21.136Z,21.00
2018-11-26T03:35:19.767Z,18.27
2018-11-26T03:40:18.534Z,20.53
2018-11-26T03:45:18.237Z,19.60
2018-11-26T03:50:16.936Z,16.80
2018-11-26T03:55:15.555Z,18.60
2018-11-26T04:00:15.187Z,17.30
2018-11-26T04:05:13.803Z,16.63
2018-11-26T04:10:13.206Z,17.57
2018-11-26T04:15:14.060Z,17.37
2018-11-26T04:20:12.689Z,18.77
2018-11-26T04:25:11.329Z,17.37
2018-11-26T04:30:11.414Z,17.03
2018-11-26T04:35:10.301Z,17.63
2018-11-26T04:40:10.160Z,17.63
2018-11-26T04:45:09.872Z,19.03
2018-11-26T04:50:10.704Z,17.70
2018-11-26T04:55:10.400Z,17.57
2018-11-26T05:00:13.417Z,20.33
2018-11-26T05:05:12.869Z,21.80
2018-11-26T05:10:12.676Z,22.87
2018-11-26T05:15:12.294Z,19.20
2018-11-26T05:20:11.977Z,18.57
2018-11-26T05:25:11.159Z,16.80
2018-11-26T05:30:10.980Z,17.17
2018-11-26T05:35:10.493Z,18.13
2018-11-26T05:40:11.241Z,17.63
2018-11-26T05:45:12.094Z,17.77
2018-11-26T05:50:12.535Z,19.27
2018-11-26T05:55:12.270Z,19.00
2018-11-26T06:00:14.563Z,18.00
2018-11-26T06:05:13.159Z,18.40
2018-11-26T06:10:11.827Z,17.93
2018-11-26T06:15:12.609Z,19.30
2018-11-26T06:20:12.238Z,17.40
2018-11-26T06:25:13.385Z,23.20
2018-11-26T06:30:15.171Z,19.60
2018-11-26T06:35:15.068Z,21.30
2018-11-26T06:40:14.040Z,20.37
2018-11-26T06:45:13.932Z,22.07
2018-11-26T06:50:13.768Z,24.07
2018-11-26T06:55:14.375Z,21.40
2018-11-26T07:00:15.232Z,23.87
2018-11-26T07:05:18.848Z,23.07
2018-11-26T07:10:18.342Z,23.00
2018-11-26T07:15:18.302Z,22.67
2018-11-26T07:20:20.036Z,21.70
2018-11-26T07:25:19.998Z,23.03
2018-11-26T07:30:19.808Z,22.67
2018-11-26T07:35:18.433Z,24.17
2018-11-26T07:40:18.185Z,22.73
2018-11-26T07:45:19.826Z,22.50
2018-11-26T07:50:20.871Z,23.43
2018-11-26T07:55:20.547Z,23.67
2018-11-26T08:00:22.542Z,23.10
2018-11-26T08:05:22.836Z,22.10
2018-11-26T08:10:23.076Z,23.80
2018-11-26T08:15:24.776Z,23.90
2018-11-26T08:20:23.485Z,24.03
2018-11-26T08:25:23.072Z,22.43
2018-11-26T08:30:25.052Z,22.47
2018-11-26T08:35:23.679Z,19.37
2018-11-26T08:40:26.048Z,22.97
2018-11-26T08:45:30.065Z,24.57
2018-11-26T08:50:28.678Z,22.50
2018-11-26T08:55:29.443Z,21.13
2018-11-26T09:00:31.397Z,20.50
2018-11-26T09:05:40.528Z,20.27
2018-11-26T09:10:39.384Z,19.43
2018-11-26T09:15:38.053Z,26.90
2018-11-26T09:20:36.899Z,19.17
2018-11-26T09:25:35.541Z,20.23
2018-11-26T09:30:34.195Z,19.10
2018-11-26T09:35:34.778Z,19.30
2018-11-26T09:40:35.045Z,18.23
2018-11-26T09:45:40.086Z,16.87
2018-11-26T09:50:32.554Z,19.27
2018-11-26T09:55:31.173Z,16.00
2018-11-26T10:00:29.848Z,15.40
2018-11-26T10:05:28.472Z,16.87
2018-11-26T10:10:27.171Z,16.40
2018-11-26T10:15:26.669Z,16.83
2018-11-26T10:20:25.292Z,16.50
2018-11-26T10:25:23.944Z,15.47
2018-11-26T10:30:23.586Z,13.67
2018-11-26T10:35:22.496Z,15.00
2018-11-26T10:40:22.924Z,14.10
2018-11-26T10:50:26.679Z,15.40
2018-11-26T10:55:29.291Z,16.40
2018-11-26T11:00:33.427Z,17.03
2018-11-26T11:05:32.116Z,14.30
2018-11-26T11:10:32.704Z,14.50
2018-11-26T11:15:31.300Z,14.80
2018-11-26T11:20:30.153Z,14.17
2018-11-26T11:25:28.821Z,14.20
2018-11-26T11:30:28.706Z,14.27
2018-11-26T11:35:27.346Z,13.83
2018-11-26T11:40:27.126Z,12.70
2018-11-26T11:45:26.480Z,13.97
2018-11-26T11:50:25.158Z,14.70
2018-11-26T11:55:24.893Z,13.87
2018-11-26T12:00:32.864Z,13.50
2018-11-26T12:05:31.587Z,12.37
2018-11-26T12:10:30.230Z,14.70
2018-11-26T12:15:28.869Z,12.17
2018-11-26T12:20:28.353Z,13.17
2018-11-26T12:25:27.178Z,13.13
2018-11-26T12:30:27.284Z,13.40
2018-11-26T12:35:25.944Z,14.70
2018-11-26T12:40:25.495Z,14.70
2018-11-26T12:45:25.455Z,15.03
2018-11-26T12:50:25.146Z,17.23
2018-11-26T12:55:25.425Z,15.60
2018-11-26T13:00:28.162Z,16.70
2018-11-26T13:05:26.853Z,15.93
2018-11-26T13:10:25.882Z,14.03
2018-11-26T13:15:25.761Z,16.47
2018-11-26T13:20:27.910Z,16.23
2018-11-26T13:25:28.557Z,17.37
2018-11-26T13:30:29.330Z,14.87
2018-11-26T13:35:27.970Z,14.77
2018-11-26T13:40:27.816Z,18.00
2018-11-26T13:45:28.558Z,17.40
2018-11-26T13:50:28.928Z,14.00
2018-11-26T13:55:27.718Z,18.30
2018-11-26T14:00:26.463Z,15.37
2018-11-26T14:05:25.070Z,16.37
2018-11-26T14:10:24.945Z,17.00
2018-11-26T14:15:23.586Z,13.40
2018-11-26T14:20:22.333Z,16.20
2018-11-26T14:25:24.338Z,16.13
2018-11-26T14:30:24.790Z,15.00
2018-11-26T14:35:23.454Z,16.97
2018-11-26T14:40:27.621Z,16.03
2018-11-26T14:45:26.256Z,15.90
2018-11-26T14:50:24.926Z,14.70
2018-11-26T14:55:27.666Z,15.57
2018-11-26T15:00:26.342Z,14.67
2018-11-26T15:05:24.985Z,15.30
2018-11-26T15:10:24.518Z,14.37
2018-11-26T15:15:26.485Z,14.37
2018-11-26T15:20:27.051Z,19.48
2018-11-26T15:25:28.772Z,15.07
2018-11-26T15:30:27.390Z,15.33
2018-11-26T15:35:26.070Z,16.03
2018-11-26T15:40:24.736Z,16.03
2018-11-26T15:45:24.649Z,16.00
2018-11-26T15:50:23.351Z,14.47
2018-11-26T15:55:22.348Z,17.17
2018-11-26T16:00:22.179Z,15.60
2018-11-26T16:05:23.132Z,15.00
2018-11-26T16:10:21.771Z,15.57
2018-11-26T16:15:24.029Z,17.17
2018-11-26T16:20:24.797Z,15.40
2018-11-26T16:25:24.117Z,14.97
2018-11-26T16:30:22.775Z,14.40
2018-11-26T16:35:22.859Z,15.80
2018-11-26T16:40:21.711Z,15.10
2018-11-26T16:45:22.593Z,14.50
2018-11-26T16:50:22.678Z,14.90
2018-11-26T16:55:21.381Z,13.80
2018-11-26T17:00:22.348Z,14.17
2018-11-26T17:05:24.401Z,14.00
2018-11-26T17:10:23.034Z,14.03
2018-11-26T17:15:21.760Z,14.90
2018-11-26T17:20:20.426Z,14.43
2018-11-26T17:25:19.090Z,13.83
2018-11-26T17:30:20.177Z,15.00
2018-11-26T17:35:18.792Z,12.50
2018-11-26T17:40:19.945Z,12.53
2018-11-26T17:45:19.312Z,11.40
2018-11-26T17:50:37.833Z,11.00
2018-11-26T17:55:44.386Z,12.87
2018-11-26T18:00:44.467Z,11.03
2018-11-26T18:05:43.262Z,11.87
2018-11-26T18:10:41.989Z,11.60
2018-11-26T18:15:41.134Z,11.50
2018-11-26T18:20:41.193Z,9.50
2018-11-26T18:25:41.112Z,11.00
2018-11-26T18:30:42.029Z,9.63
2018-11-26T18:35:41.266Z,8.73
2018-11-26T18:40:41.266Z,8.73
2018-11-26T18:45:40.597Z,9.40
2018-11-26T18:50:39.615Z,9.70
2018-11-26T18:55:39.360Z,9.67
2018-11-26T19:00:40.903Z,10.70
2018-11-26T19:05:39.550Z,8.97
2018-11-26T19:10:38.256Z,10.73
2018-11-26T19:15:38.264Z,10.77
2018-11-26T19:20:36.887Z,8.70
2018-11-26T19:25:36.939Z,10.23
2018-11-26T19:31:38.534Z,9.97
2018-11-26T19:36:38.007Z,9.20
2018-11-26T19:41:37.172Z,10.10
2018-11-26T19:46:35.844Z,10.70
2018-11-26T19:51:34.505Z,11.37
2018-11-26T19:56:33.129Z,11.50
2018-11-26T20:01:31.836Z,10.00
2018-11-26T20:06:30.577Z,10.37
2018-11-26T20:11:33.147Z,10.47
2018-11-26T20:16:46.193Z,12.10
2018-11-26T20:21:45.175Z,11.10
2018-11-26T20:26:43.815Z,10.27
2018-11-26T20:31:42.497Z,10.70
2018-11-26T20:36:41.470Z,11.80
2018-11-26T20:41:40.139Z,10.70
2018-11-26T20:46:38.773Z,13.27
2018-11-26T20:51:37.459Z,13.30
2018-11-26T20:56:37.276Z,13.60
2018-11-26T21:01:45.857Z,14.23
2018-11-26T21:06:44.467Z,14.63
2018-11-26T21:11:43.141Z,13.13
2018-11-26T21:16:41.822Z,14.10
2018-11-26T21:21:40.466Z,14.70
2018-11-26T21:26:39.142Z,14.90
2018-11-26T21:31:37.799Z,15.27
2018-11-26T21:36:36.455Z,13.93
2018-11-26T21:41:35.168Z,13.97
2018-11-26T21:46:33.774Z,17.17
2018-11-26T21:51:33.418Z,13.93
2018-11-26T21:56:31.090Z,15.40
2018-11-26T22:01:29.837Z,13.83
2018-11-26T22:06:28.542Z,13.47
2018-11-26T22:11:30.318Z,16.83
2018-11-26T22:16:26.019Z,15.73
2018-11-26T22:21:24.702Z,15.97
2018-11-26T22:26:23.357Z,13.73
2018-11-26T22:31:22.094Z,16.37
2018-11-26T22:36:20.740Z,14.80
2018-11-26T22:41:19.381Z,14.17
2018-11-26T22:46:18.011Z,13.43
2018-11-26T22:51:16.728Z,14.87
2018-11-26T22:56:15.389Z,12.73
2018-11-26T23:01:14.088Z,13.90
2018-11-26T23:06:12.942Z,12.90
2018-11-26T23:11:11.402Z,14.23
2018-11-26T23:16:10.066Z,12.13
2018-11-26T23:21:08.802Z,11.93
2018-11-26T23:26:07.401Z,13.30
2018-11-26T23:31:06.450Z,13.50
2018-11-26T23:36:05.091Z,12.97
2018-11-26T23:41:03.810Z,13.17
2018-11-26T23:46:02.434Z,13.20
2018-11-26T23:51:01.121Z,13.40
2018-11-26T23:55:59.737Z,12.73
